sensor_id;sensor_type;location;lat;lon;timestamp;temperature;humidity
7814;DHT22;3952;48.364;16.022;2023-06-22T00:02:22;20.60;99.90
7814;DHT22;3952;48.364;16.022;2023-06-22T00:04:51;20.80;99.90
7814;DHT22;3952;48.364;16.022;2023-06-22T00:07:18;20.80;99.90
7814;DHT22;3952;48.364;16.022;2023-06-22T00:09:45;20.80;99.90
7814;DHT22;3952;48.364;16.022;2023-06-22T00:12:12;20.80;99.90
7814;DHT22;3952;48.364;16.022;2023-06-22T00:14:39;20.80;99.90
7814;DHT22;3952;48.364;16.022;2023-06-22T00:17:06;20.80;99.90
7814;DHT22;3952;48.364;16.022;2023-06-22T00:19:34;20.80;99.90
7814;DHT22;3952;48.364;16.022;2023-06-22T00:22:03;20.80;99.90
7814;DHT22;3952;48.364;16.022;2023-06-22T00:24:30;20.80;99.90
7814;DHT22;3952;48.364;16.022;2023-06-22T00:26:57;20.80;99.90
7814;DHT22;3952;48.364;16.022;2023-06-22T00:29:24;20.80;99.90
7814;DHT22;3952;48.364;16.022;2023-06-22T00:31:52;20.80;99.90
7814;DHT22;3952;48.364;16.022;2023-06-22T00:34:19;20.80;99.90
7814;DHT22;3952;48.364;16.022;2023-06-22T00:36:46;20.70;99.90
7814;DHT22;3952;48.364;16.022;2023-06-22T00:39:14;20.70;99.90
7814;DHT22;3952;48.364;16.022;2023-06-22T00:41:42;20.60;99.90
7814;DHT22;3952;48.364;16.022;2023-06-22T00:44:09;20.60;99.90
7814;DHT22;3952;48.364;16.022;2023-06-22T00:46:36;20.60;99.90
7814;DHT22;3952;48.364;16.022;2023-06-22T00:49:04;20.60;99.90
7814;DHT22;3952;48.364;16.022;2023-06-22T00:51:31;20.60;99.90
7814;DHT22;3952;48.364;16.022;2023-06-22T00:53:59;20.60;99.90
7814;DHT22;3952;48.364;16.022;2023-06-22T00:56:27;20.60;99.90
7814;DHT22;3952;48.364;16.022;2023-06-22T00:58:55;20.50;99.90
7814;DHT22;3952;48.364;16.022;2023-06-22T01:01:24;20.30;99.90
7814;DHT22;3952;48.364;16.022;2023-06-22T01:03:51;20.30;99.90
7814;DHT22;3952;48.364;16.022;2023-06-22T01:06:24;20.20;99.90
7814;DHT22;3952;48.364;16.022;2023-06-22T01:09:00;20.20;99.90
7814;DHT22;3952;48.364;16.022;2023-06-22T01:11:37;20.20;99.90
7814;DHT22;3952;48.364;16.022;2023-06-22T01:14:10;20.10;99.90
7814;DHT22;3952;48.364;16.022;2023-06-22T01:16:41;20.10;99.90
7814;DHT22;3952;48.364;16.022;2023-06-22T01:19:18;20.10;99.90
7814;DHT22;3952;48.364;16.022;2023-06-22T01:21:48;20.10;99.90
7814;DHT22;3952;48.364;16.022;2023-06-22T01:24:21;20.00;99.90
7814;DHT22;3952;48.364;16.022;2023-06-22T01:27:00;20.00;99.90
7814;DHT22;3952;48.364;16.022;2023-06-22T01:29:32;20.00;99.90
7814;DHT22;3952;48.364;16.022;2023-06-22T01:32:00;20.00;99.90
7814;DHT22;3952;48.364;16.022;2023-06-22T01:34:29;20.00;99.90
7814;DHT22;3952;48.364;16.022;2023-06-22T01:36:58;19.90;99.90
7814;DHT22;3952;48.364;16.022;2023-06-22T01:39:26;19.90;99.90
7814;DHT22;3952;48.364;16.022;2023-06-22T01:41:54;19.90;99.90
7814;DHT22;3952;48.364;16.022;2023-06-22T01:44:22;19.80;99.90
7814;DHT22;3952;48.364;16.022;2023-06-22T01:46:51;19.90;99.90
7814;DHT22;3952;48.364;16.022;2023-06-22T01:49:18;19.90;99.90
7814;DHT22;3952;48.364;16.022;2023-06-22T01:51:46;19.80;99.90
7814;DHT22;3952;48.364;16.022;2023-06-22T01:54:13;19.80;99.90
7814;DHT22;3952;48.364;16.022;2023-06-22T01:56:40;19.80;99.90
7814;DHT22;3952;48.364;16.022;2023-06-22T01:59:11;19.80;99.90
7814;DHT22;3952;48.364;16.022;2023-06-22T02:01:43;19.80;99.90
7814;DHT22;3952;48.364;16.022;2023-06-22T02:04:19;19.80;99.90
7814;DHT22;3952;48.364;16.022;2023-06-22T02:06:53;19.80;99.90
7814;DHT22;3952;48.364;16.022;2023-06-22T02:09:22;19.70;99.90
7814;DHT22;3952;48.364;16.022;2023-06-22T02:11:51;19.70;99.90
7814;DHT22;3952;48.364;16.022;2023-06-22T02:14:21;19.70;99.90
7814;DHT22;3952;48.364;16.022;2023-06-22T02:16:50;19.70;99.90
7814;DHT22;3952;48.364;16.022;2023-06-22T02:19:23;19.60;99.90
7814;DHT22;3952;48.364;16.022;2023-06-22T02:21:50;19.60;99.90
7814;DHT22;3952;48.364;16.022;2023-06-22T02:24:17;19.50;99.90
7814;DHT22;3952;48.364;16.022;2023-06-22T02:26:44;19.40;99.90
7814;DHT22;3952;48.364;16.022;2023-06-22T02:29:12;19.40;99.90
7814;DHT22;3952;48.364;16.022;2023-06-22T02:31:39;19.30;99.90
7814;DHT22;3952;48.364;16.022;2023-06-22T02:34:06;19.30;99.90
7814;DHT22;3952;48.364;16.022;2023-06-22T02:36:35;19.30;99.90
7814;DHT22;3952;48.364;16.022;2023-06-22T02:39:02;19.30;99.90
7814;DHT22;3952;48.364;16.022;2023-06-22T02:41:30;19.20;99.90
7814;DHT22;3952;48.364;16.022;2023-06-22T02:43:57;19.20;99.90
7814;DHT22;3952;48.364;16.022;2023-06-22T02:46:24;19.30;99.90
7814;DHT22;3952;48.364;16.022;2023-06-22T02:48:51;19.30;99.90
7814;DHT22;3952;48.364;16.022;2023-06-22T02:51:19;19.20;99.90
7814;DHT22;3952;48.364;16.022;2023-06-22T02:53:48;19.20;99.90
7814;DHT22;3952;48.364;16.022;2023-06-22T02:56:18;19.20;99.90
7814;DHT22;3952;48.364;16.022;2023-06-22T02:58:50;19.20;99.90
7814;DHT22;3952;48.364;16.022;2023-06-22T03:01:17;19.20;99.90
7814;DHT22;3952;48.364;16.022;2023-06-22T03:03:50;19.20;99.90
7814;DHT22;3952;48.364;16.022;2023-06-22T03:06:17;19.20;99.90
7814;DHT22;3952;48.364;16.022;2023-06-22T03:08:50;19.20;99.90
7814;DHT22;3952;48.364;16.022;2023-06-22T03:11:18;19.20;99.90
7814;DHT22;3952;48.364;16.022;2023-06-22T03:13:45;19.10;99.90
7814;DHT22;3952;48.364;16.022;2023-06-22T03:16:12;19.20;99.90
7814;DHT22;3952;48.364;16.022;2023-06-22T03:18:39;19.20;99.90
7814;DHT22;3952;48.364;16.022;2023-06-22T03:21:06;19.20;99.90
7814;DHT22;3952;48.364;16.022;2023-06-22T03:23:34;19.20;99.90
7814;DHT22;3952;48.364;16.022;2023-06-22T03:26:03;19.20;99.90
7814;DHT22;3952;48.364;16.022;2023-06-22T03:28:30;19.20;99.90
7814;DHT22;3952;48.364;16.022;2023-06-22T03:30:58;19.20;99.90
7814;DHT22;3952;48.364;16.022;2023-06-22T03:33:25;19.20;99.90
7814;DHT22;3952;48.364;16.022;2023-06-22T03:35:52;19.20;99.90
7814;DHT22;3952;48.364;16.022;2023-06-22T03:38:20;19.10;99.90
7814;DHT22;3952;48.364;16.022;2023-06-22T03:40:47;19.10;99.90
7814;DHT22;3952;48.364;16.022;2023-06-22T03:43:16;19.10;99.90
7814;DHT22;3952;48.364;16.022;2023-06-22T03:45:43;19.00;99.90
7814;DHT22;3952;48.364;16.022;2023-06-22T03:48:11;19.10;99.90
7814;DHT22;3952;48.364;16.022;2023-06-22T03:50:38;19.10;99.90
7814;DHT22;3952;48.364;16.022;2023-06-22T03:53:05;19.10;99.90
7814;DHT22;3952;48.364;16.022;2023-06-22T03:55:34;19.10;99.90
7814;DHT22;3952;48.364;16.022;2023-06-22T03:58:01;19.10;99.90
7814;DHT22;3952;48.364;16.022;2023-06-22T04:00:32;19.30;99.90
7814;DHT22;3952;48.364;16.022;2023-06-22T04:02:59;19.10;99.90
7814;DHT22;3952;48.364;16.022;2023-06-22T04:05:27;19.10;99.90
7814;DHT22;3952;48.364;16.022;2023-06-22T04:07:54;19.20;99.90
7814;DHT22;3952;48.364;16.022;2023-06-22T04:10:21;19.20;99.90
7814;DHT22;3952;48.364;16.022;2023-06-22T04:12:48;19.30;99.90
7814;DHT22;3952;48.364;16.022;2023-06-22T04:15:15;19.30;99.90
7814;DHT22;3952;48.364;16.022;2023-06-22T04:17:44;19.30;99.90
7814;DHT22;3952;48.364;16.022;2023-06-22T04:20:11;19.40;99.90
7814;DHT22;3952;48.364;16.022;2023-06-22T04:22:39;19.50;99.90
7814;DHT22;3952;48.364;16.022;2023-06-22T04:25:06;19.50;99.90
7814;DHT22;3952;48.364;16.022;2023-06-22T04:27:34;19.60;99.90
7814;DHT22;3952;48.364;16.022;2023-06-22T04:30:03;19.70;99.90
7814;DHT22;3952;48.364;16.022;2023-06-22T04:32:32;19.70;99.90
7814;DHT22;3952;48.364;16.022;2023-06-22T04:35:03;19.80;99.90
7814;DHT22;3952;48.364;16.022;2023-06-22T04:37:32;19.80;99.90
7814;DHT22;3952;48.364;16.022;2023-06-22T04:39:59;19.80;99.90
7814;DHT22;3952;48.364;16.022;2023-06-22T04:42:26;19.90;99.90
7814;DHT22;3952;48.364;16.022;2023-06-22T04:44:54;19.90;99.90
7814;DHT22;3952;48.364;16.022;2023-06-22T04:47:21;20.00;99.90
7814;DHT22;3952;48.364;16.022;2023-06-22T04:49:48;20.00;99.90
7814;DHT22;3952;48.364;16.022;2023-06-22T04:52:17;20.00;99.90
7814;DHT22;3952;48.364;16.022;2023-06-22T04:54:46;20.10;99.90
7814;DHT22;3952;48.364;16.022;2023-06-22T04:57:16;20.10;99.90
7814;DHT22;3952;48.364;16.022;2023-06-22T04:59:43;20.20;99.90
7814;DHT22;3952;48.364;16.022;2023-06-22T05:02:13;20.20;99.90
7814;DHT22;3952;48.364;16.022;2023-06-22T05:04:41;20.30;99.90
7814;DHT22;3952;48.364;16.022;2023-06-22T05:07:08;20.30;99.90
7814;DHT22;3952;48.364;16.022;2023-06-22T05:09:37;20.40;99.90
7814;DHT22;3952;48.364;16.022;2023-06-22T05:12:05;20.50;99.90
7814;DHT22;3952;48.364;16.022;2023-06-22T05:14:33;20.50;99.90
7814;DHT22;3952;48.364;16.022;2023-06-22T05:17:01;20.50;99.90
7814;DHT22;3952;48.364;16.022;2023-06-22T05:19:29;20.60;99.90
7814;DHT22;3952;48.364;16.022;2023-06-22T05:21:59;20.70;99.90
7814;DHT22;3952;48.364;16.022;2023-06-22T05:24:59;20.70;99.90
7814;DHT22;3952;48.364;16.022;2023-06-22T05:27:26;20.80;99.90
7814;DHT22;3952;48.364;16.022;2023-06-22T05:29:53;20.90;99.90
7814;DHT22;3952;48.364;16.022;2023-06-22T05:32:20;20.90;99.90
7814;DHT22;3952;48.364;16.022;2023-06-22T05:34:48;21.00;99.90
7814;DHT22;3952;48.364;16.022;2023-06-22T05:37:15;21.00;99.90
7814;DHT22;3952;48.364;16.022;2023-06-22T05:39:42;21.00;99.90
7814;DHT22;3952;48.364;16.022;2023-06-22T05:42:11;21.00;99.90
7814;DHT22;3952;48.364;16.022;2023-06-22T05:44:38;21.10;99.90
7814;DHT22;3952;48.364;16.022;2023-06-22T05:47:06;21.20;99.90
7814;DHT22;3952;48.364;16.022;2023-06-22T05:49:34;21.30;99.90
7814;DHT22;3952;48.364;16.022;2023-06-22T05:52:01;21.30;99.90
7814;DHT22;3952;48.364;16.022;2023-06-22T05:54:28;21.40;99.90
7814;DHT22;3952;48.364;16.022;2023-06-22T05:56:55;21.50;99.90
7814;DHT22;3952;48.364;16.022;2023-06-22T05:59:24;21.60;99.90
7814;DHT22;3952;48.364;16.022;2023-06-22T06:01:52;21.70;99.90
7814;DHT22;3952;48.364;16.022;2023-06-22T06:04:19;21.80;99.90
7814;DHT22;3952;48.364;16.022;2023-06-22T06:06:46;21.80;99.90
7814;DHT22;3952;48.364;16.022;2023-06-22T06:09:14;21.90;99.90
7814;DHT22;3952;48.364;16.022;2023-06-22T06:11:41;22.10;99.90
7814;DHT22;3952;48.364;16.022;2023-06-22T06:14:08;22.10;99.90
7814;DHT22;3952;48.364;16.022;2023-06-22T06:16:37;22.30;99.90
7814;DHT22;3952;48.364;16.022;2023-06-22T06:19:04;22.40;99.90
7814;DHT22;3952;48.364;16.022;2023-06-22T06:21:31;22.50;99.90
7814;DHT22;3952;48.364;16.022;2023-06-22T06:23:58;22.60;99.90
7814;DHT22;3952;48.364;16.022;2023-06-22T06:26:25;22.70;99.90
7814;DHT22;3952;48.364;16.022;2023-06-22T06:28:56;22.80;99.90
7814;DHT22;3952;48.364;16.022;2023-06-22T06:31:23;22.90;99.90
7814;DHT22;3952;48.364;16.022;2023-06-22T06:33:51;23.00;99.90
7814;DHT22;3952;48.364;16.022;2023-06-22T06:36:19;23.10;99.90
7814;DHT22;3952;48.364;16.022;2023-06-22T06:38:47;23.20;99.90
7814;DHT22;3952;48.364;16.022;2023-06-22T06:41:14;23.40;99.90
7814;DHT22;3952;48.364;16.022;2023-06-22T06:43:41;23.50;99.90
7814;DHT22;3952;48.364;16.022;2023-06-22T06:46:09;23.70;99.90
7814;DHT22;3952;48.364;16.022;2023-06-22T06:48:36;23.70;99.90
7814;DHT22;3952;48.364;16.022;2023-06-22T06:51:05;23.80;99.90
7814;DHT22;3952;48.364;16.022;2023-06-22T06:53:35;24.00;99.90
7814;DHT22;3952;48.364;16.022;2023-06-22T06:56:02;24.10;99.90
7814;DHT22;3952;48.364;16.022;2023-06-22T06:58:31;24.30;99.90
7814;DHT22;3952;48.364;16.022;2023-06-22T07:00:58;24.20;99.90
7814;DHT22;3952;48.364;16.022;2023-06-22T07:03:25;24.30;99.90
7814;DHT22;3952;48.364;16.022;2023-06-22T07:05:52;24.50;99.90
7814;DHT22;3952;48.364;16.022;2023-06-22T07:08:21;24.50;99.90
7814;DHT22;3952;48.364;16.022;2023-06-22T07:10:48;24.60;99.90
7814;DHT22;3952;48.364;16.022;2023-06-22T07:13:15;24.70;99.90
7814;DHT22;3952;48.364;16.022;2023-06-22T07:15:42;24.70;99.90
7814;DHT22;3952;48.364;16.022;2023-06-22T07:18:09;24.80;99.90
7814;DHT22;3952;48.364;16.022;2023-06-22T07:20:37;24.90;99.90
7814;DHT22;3952;48.364;16.022;2023-06-22T07:23:05;25.10;99.90
7814;DHT22;3952;48.364;16.022;2023-06-22T07:25:33;25.10;99.90
7814;DHT22;3952;48.364;16.022;2023-06-22T07:28:02;25.20;99.90
7814;DHT22;3952;48.364;16.022;2023-06-22T07:30:30;25.30;99.90
7814;DHT22;3952;48.364;16.022;2023-06-22T07:32:58;25.50;99.90
7814;DHT22;3952;48.364;16.022;2023-06-22T07:35:29;25.60;99.90
7814;DHT22;3952;48.364;16.022;2023-06-22T07:37:56;25.70;99.90
7814;DHT22;3952;48.364;16.022;2023-06-22T07:40:23;25.70;99.90
7814;DHT22;3952;48.364;16.022;2023-06-22T07:42:52;25.90;99.90
7814;DHT22;3952;48.364;16.022;2023-06-22T07:45:19;25.90;99.90
7814;DHT22;3952;48.364;16.022;2023-06-22T07:47:46;25.90;99.90
7814;DHT22;3952;48.364;16.022;2023-06-22T07:50:13;26.00;99.90
7814;DHT22;3952;48.364;16.022;2023-06-22T07:52:40;26.00;99.90
7814;DHT22;3952;48.364;16.022;2023-06-22T07:55:08;26.20;99.90
7814;DHT22;3952;48.364;16.022;2023-06-22T07:57:35;26.30;99.90
7814;DHT22;3952;48.364;16.022;2023-06-22T08:00:05;26.50;99.90
7814;DHT22;3952;48.364;16.022;2023-06-22T08:02:38;26.60;99.90
7814;DHT22;3952;48.364;16.022;2023-06-22T08:05:06;26.70;99.90
7814;DHT22;3952;48.364;16.022;2023-06-22T08:07:34;26.70;99.90
7814;DHT22;3952;48.364;16.022;2023-06-22T08:10:03;26.70;99.90
7814;DHT22;3952;48.364;16.022;2023-06-22T08:12:30;26.80;99.90
7814;DHT22;3952;48.364;16.022;2023-06-22T08:14:58;26.90;99.90
7814;DHT22;3952;48.364;16.022;2023-06-22T08:17:26;27.00;99.90
7814;DHT22;3952;48.364;16.022;2023-06-22T08:19:54;27.10;99.90
7814;DHT22;3952;48.364;16.022;2023-06-22T08:22:21;27.20;99.90
7814;DHT22;3952;48.364;16.022;2023-06-22T08:24:48;27.30;99.90
7814;DHT22;3952;48.364;16.022;2023-06-22T08:27:15;27.40;99.90
7814;DHT22;3952;48.364;16.022;2023-06-22T08:29:44;27.50;99.90
7814;DHT22;3952;48.364;16.022;2023-06-22T08:32:12;27.50;99.90
7814;DHT22;3952;48.364;16.022;2023-06-22T08:34:40;27.50;99.90
7814;DHT22;3952;48.364;16.022;2023-06-22T08:37:08;27.60;99.90
7814;DHT22;3952;48.364;16.022;2023-06-22T08:39:36;27.70;99.90
7814;DHT22;3952;48.364;16.022;2023-06-22T08:42:05;27.80;99.90
7814;DHT22;3952;48.364;16.022;2023-06-22T08:44:32;27.90;99.90
7814;DHT22;3952;48.364;16.022;2023-06-22T08:47:00;28.00;99.90
7814;DHT22;3952;48.364;16.022;2023-06-22T08:49:27;28.20;99.90
7814;DHT22;3952;48.364;16.022;2023-06-22T08:51:56;28.20;99.90
7814;DHT22;3952;48.364;16.022;2023-06-22T08:54:23;28.30;99.90
7814;DHT22;3952;48.364;16.022;2023-06-22T08:56:51;28.40;99.90
7814;DHT22;3952;48.364;16.022;2023-06-22T08:59:18;28.50;99.90
7814;DHT22;3952;48.364;16.022;2023-06-22T09:01:45;28.60;99.90
7814;DHT22;3952;48.364;16.022;2023-06-22T09:04:14;28.60;99.90
7814;DHT22;3952;48.364;16.022;2023-06-22T09:06:42;28.70;99.90
7814;DHT22;3952;48.364;16.022;2023-06-22T09:09:14;28.60;99.90
7814;DHT22;3952;48.364;16.022;2023-06-22T09:11:41;28.70;99.90
7814;DHT22;3952;48.364;16.022;2023-06-22T09:14:08;28.70;99.90
7814;DHT22;3952;48.364;16.022;2023-06-22T09:16:35;28.90;99.90
7814;DHT22;3952;48.364;16.022;2023-06-22T09:19:03;28.90;99.90
7814;DHT22;3952;48.364;16.022;2023-06-22T09:21:30;28.90;99.90
7814;DHT22;3952;48.364;16.022;2023-06-22T09:23:57;28.90;99.90
7814;DHT22;3952;48.364;16.022;2023-06-22T09:26:26;29.00;99.90
7814;DHT22;3952;48.364;16.022;2023-06-22T09:28:53;29.00;99.90
7814;DHT22;3952;48.364;16.022;2023-06-22T09:31:20;29.00;99.90
7814;DHT22;3952;48.364;16.022;2023-06-22T09:33:52;29.00;99.90
7814;DHT22;3952;48.364;16.022;2023-06-22T09:36:20;29.10;99.90
7814;DHT22;3952;48.364;16.022;2023-06-22T09:38:48;29.10;99.90
7814;DHT22;3952;48.364;16.022;2023-06-22T09:41:21;29.20;99.90
7814;DHT22;3952;48.364;16.022;2023-06-22T09:43:50;29.00;99.90
7814;DHT22;3952;48.364;16.022;2023-06-22T09:46:17;28.90;99.90
7814;DHT22;3952;48.364;16.022;2023-06-22T09:48:47;29.00;99.90
7814;DHT22;3952;48.364;16.022;2023-06-22T09:51:14;29.00;99.90
7814;DHT22;3952;48.364;16.022;2023-06-22T09:53:41;29.10;99.90
7814;DHT22;3952;48.364;16.022;2023-06-22T09:56:09;29.20;99.90
7814;DHT22;3952;48.364;16.022;2023-06-22T09:58:40;29.20;99.90
7814;DHT22;3952;48.364;16.022;2023-06-22T10:01:09;29.20;99.90
7814;DHT22;3952;48.364;16.022;2023-06-22T10:03:37;29.10;99.90
7814;DHT22;3952;48.364;16.022;2023-06-22T10:06:04;29.10;99.90
7814;DHT22;3952;48.364;16.022;2023-06-22T10:08:31;29.20;99.90
7814;DHT22;3952;48.364;16.022;2023-06-22T10:10:58;29.20;99.90
7814;DHT22;3952;48.364;16.022;2023-06-22T10:13:25;29.40;99.90
7814;DHT22;3952;48.364;16.022;2023-06-22T10:15:52;29.50;99.90
7814;DHT22;3952;48.364;16.022;2023-06-22T10:18:21;29.60;99.90
7814;DHT22;3952;48.364;16.022;2023-06-22T10:20:50;29.70;99.90
7814;DHT22;3952;48.364;16.022;2023-06-22T10:23:17;29.70;99.90
7814;DHT22;3952;48.364;16.022;2023-06-22T10:25:45;29.80;99.90
7814;DHT22;3952;48.364;16.022;2023-06-22T10:28:12;29.80;99.90
7814;DHT22;3952;48.364;16.022;2023-06-22T10:30:40;29.80;99.90
7814;DHT22;3952;48.364;16.022;2023-06-22T10:33:08;29.90;99.90
7814;DHT22;3952;48.364;16.022;2023-06-22T10:35:37;29.90;99.90
7814;DHT22;3952;48.364;16.022;2023-06-22T10:38:05;30.10;99.90
7814;DHT22;3952;48.364;16.022;2023-06-22T10:40:32;30.20;99.90
7814;DHT22;3952;48.364;16.022;2023-06-22T10:42:59;30.20;99.90
7814;DHT22;3952;48.364;16.022;2023-06-22T10:45:26;30.20;99.90
7814;DHT22;3952;48.364;16.022;2023-06-22T10:47:54;30.30;99.90
7814;DHT22;3952;48.364;16.022;2023-06-22T10:50:21;30.40;99.90
7814;DHT22;3952;48.364;16.022;2023-06-22T10:52:51;30.30;99.90
7814;DHT22;3952;48.364;16.022;2023-06-22T10:55:18;30.40;99.90
7814;DHT22;3952;48.364;16.022;2023-06-22T10:57:45;30.40;99.90
7814;DHT22;3952;48.364;16.022;2023-06-22T11:00:14;30.50;99.90
7814;DHT22;3952;48.364;16.022;2023-06-22T11:02:42;30.40;99.90
7814;DHT22;3952;48.364;16.022;2023-06-22T11:05:09;30.40;99.90
7814;DHT22;3952;48.364;16.022;2023-06-22T11:07:37;30.60;99.90
7814;DHT22;3952;48.364;16.022;2023-06-22T11:10:07;30.50;99.90
7814;DHT22;3952;48.364;16.022;2023-06-22T11:12:34;30.50;99.90
7814;DHT22;3952;48.364;16.022;2023-06-22T11:15:02;30.40;99.90
7814;DHT22;3952;48.364;16.022;2023-06-22T11:17:29;30.30;99.90
7814;DHT22;3952;48.364;16.022;2023-06-22T11:19:56;30.30;99.90
7814;DHT22;3952;48.364;16.022;2023-06-22T11:22:25;30.30;99.90
7814;DHT22;3952;48.364;16.022;2023-06-22T11:24:53;30.30;99.90
7814;DHT22;3952;48.364;16.022;2023-06-22T11:27:21;30.30;99.90
7814;DHT22;3952;48.364;16.022;2023-06-22T11:29:48;30.30;99.90
7814;DHT22;3952;48.364;16.022;2023-06-22T11:32:15;30.30;99.90
7814;DHT22;3952;48.364;16.022;2023-06-22T11:34:43;30.30;99.90
7814;DHT22;3952;48.364;16.022;2023-06-22T11:37:10;30.40;99.90
7814;DHT22;3952;48.364;16.022;2023-06-22T11:39:37;30.50;99.90
7814;DHT22;3952;48.364;16.022;2023-06-22T11:42:05;30.60;99.90
7814;DHT22;3952;48.364;16.022;2023-06-22T11:44:33;30.70;99.90
7814;DHT22;3952;48.364;16.022;2023-06-22T11:47:00;30.70;99.90
7814;DHT22;3952;48.364;16.022;2023-06-22T11:49:30;30.70;99.90
7814;DHT22;3952;48.364;16.022;2023-06-22T11:51:57;30.70;99.90
7814;DHT22;3952;48.364;16.022;2023-06-22T11:54:24;30.80;99.90
7814;DHT22;3952;48.364;16.022;2023-06-22T11:56:52;30.90;99.90
7814;DHT22;3952;48.364;16.022;2023-06-22T11:59:20;30.80;99.90
7814;DHT22;3952;48.364;16.022;2023-06-22T12:01:49;30.80;99.90
7814;DHT22;3952;48.364;16.022;2023-06-22T12:04:17;30.70;99.90
7814;DHT22;3952;48.364;16.022;2023-06-22T12:06:44;30.80;99.90
7814;DHT22;3952;48.364;16.022;2023-06-22T12:09:12;30.90;99.90
7814;DHT22;3952;48.364;16.022;2023-06-22T12:11:39;30.90;99.90
7814;DHT22;3952;48.364;16.022;2023-06-22T12:14:06;30.90;99.90
7814;DHT22;3952;48.364;16.022;2023-06-22T12:16:34;31.00;99.90
7814;DHT22;3952;48.364;16.022;2023-06-22T12:19:02;31.00;99.90
7814;DHT22;3952;48.364;16.022;2023-06-22T12:21:30;30.90;99.90
7814;DHT22;3952;48.364;16.022;2023-06-22T12:23:57;31.00;99.90
7814;DHT22;3952;48.364;16.022;2023-06-22T12:26:24;31.10;99.90
7814;DHT22;3952;48.364;16.022;2023-06-22T12:28:51;31.20;99.90
7814;DHT22;3952;48.364;16.022;2023-06-22T12:31:18;31.20;99.90
7814;DHT22;3952;48.364;16.022;2023-06-22T12:33:45;31.10;99.90
7814;DHT22;3952;48.364;16.022;2023-06-22T12:36:15;31.00;99.90
7814;DHT22;3952;48.364;16.022;2023-06-22T12:38:43;31.00;99.90
7814;DHT22;3952;48.364;16.022;2023-06-22T12:41:10;31.10;99.90
7814;DHT22;3952;48.364;16.022;2023-06-22T12:43:37;31.10;99.90
7814;DHT22;3952;48.364;16.022;2023-06-22T12:46:04;31.10;99.90
7814;DHT22;3952;48.364;16.022;2023-06-22T12:48:31;31.10;99.90
7814;DHT22;3952;48.364;16.022;2023-06-22T12:50:58;30.80;99.90
7814;DHT22;3952;48.364;16.022;2023-06-22T12:53:27;31.20;99.90
7814;DHT22;3952;48.364;16.022;2023-06-22T12:55:54;31.20;99.90
7814;DHT22;3952;48.364;16.022;2023-06-22T12:58:21;31.20;99.90
7814;DHT22;3952;48.364;16.022;2023-06-22T13:00:49;31.30;99.90
7814;DHT22;3952;48.364;16.022;2023-06-22T13:03:16;31.20;99.90
7814;DHT22;3952;48.364;16.022;2023-06-22T13:05:43;31.20;99.90
7814;DHT22;3952;48.364;16.022;2023-06-22T13:08:10;31.20;99.90
7814;DHT22;3952;48.364;16.022;2023-06-22T13:10:39;31.30;99.90
7814;DHT22;3952;48.364;16.022;2023-06-22T13:13:06;31.30;99.90
7814;DHT22;3952;48.364;16.022;2023-06-22T13:15:33;31.20;99.90
7814;DHT22;3952;48.364;16.022;2023-06-22T13:18:00;31.20;99.90
7814;DHT22;3952;48.364;16.022;2023-06-22T13:20:28;31.20;99.90
7814;DHT22;3952;48.364;16.022;2023-06-22T13:22:56;31.30;99.90
7814;DHT22;3952;48.364;16.022;2023-06-22T13:25:23;31.30;99.90
7814;DHT22;3952;48.364;16.022;2023-06-22T13:27:53;31.20;99.90
7814;DHT22;3952;48.364;16.022;2023-06-22T13:30:20;31.30;99.90
7814;DHT22;3952;48.364;16.022;2023-06-22T13:32:47;31.30;99.90
7814;DHT22;3952;48.364;16.022;2023-06-22T13:35:15;31.20;99.90
7814;DHT22;3952;48.364;16.022;2023-06-22T13:37:42;31.30;99.90
7814;DHT22;3952;48.364;16.022;2023-06-22T13:40:10;31.40;99.90
7814;DHT22;3952;48.364;16.022;2023-06-22T13:42:37;31.30;99.90
7814;DHT22;3952;48.364;16.022;2023-06-22T13:45:07;31.30;99.90
7814;DHT22;3952;48.364;16.022;2023-06-22T13:47:34;31.30;99.90
7814;DHT22;3952;48.364;16.022;2023-06-22T13:50:02;31.20;99.90
7814;DHT22;3952;48.364;16.022;2023-06-22T13:52:29;31.20;99.90
7814;DHT22;3952;48.364;16.022;2023-06-22T13:54:56;31.20;99.90
7814;DHT22;3952;48.364;16.022;2023-06-22T13:57:23;31.20;99.90
7814;DHT22;3952;48.364;16.022;2023-06-22T13:59:50;31.20;99.90
7814;DHT22;3952;48.364;16.022;2023-06-22T14:02:19;31.20;99.90
7814;DHT22;3952;48.364;16.022;2023-06-22T14:04:46;31.10;99.90
7814;DHT22;3952;48.364;16.022;2023-06-22T14:07:13;31.00;99.90
7814;DHT22;3952;48.364;16.022;2023-06-22T14:09:40;31.00;99.90
7814;DHT22;3952;48.364;16.022;2023-06-22T14:12:08;31.00;99.90
7814;DHT22;3952;48.364;16.022;2023-06-22T14:14:36;31.10;99.90
7814;DHT22;3952;48.364;16.022;2023-06-22T14:17:04;31.10;99.90
7814;DHT22;3952;48.364;16.022;2023-06-22T14:19:32;31.00;99.90
7814;DHT22;3952;48.364;16.022;2023-06-22T14:21:59;30.90;99.90
7814;DHT22;3952;48.364;16.022;2023-06-22T14:24:27;30.80;99.90
7814;DHT22;3952;48.364;16.022;2023-06-22T14:26:54;30.90;99.90
7814;DHT22;3952;48.364;16.022;2023-06-22T14:29:21;30.90;99.90
7814;DHT22;3952;48.364;16.022;2023-06-22T14:31:49;30.90;99.90
7814;DHT22;3952;48.364;16.022;2023-06-22T14:34:16;30.90;99.90
7814;DHT22;3952;48.364;16.022;2023-06-22T14:36:45;30.90;99.90
7814;DHT22;3952;48.364;16.022;2023-06-22T14:39:12;30.90;99.90
7814;DHT22;3952;48.364;16.022;2023-06-22T14:41:39;30.90;99.90
7814;DHT22;3952;48.364;16.022;2023-06-22T14:44:06;30.90;99.90
7814;DHT22;3952;48.364;16.022;2023-06-22T14:46:34;30.90;99.90
7814;DHT22;3952;48.364;16.022;2023-06-22T14:49:02;31.00;99.90
7814;DHT22;3952;48.364;16.022;2023-06-22T14:51:29;31.00;99.90
7814;DHT22;3952;48.364;16.022;2023-06-22T14:53:57;31.10;99.90
7814;DHT22;3952;48.364;16.022;2023-06-22T14:56:24;31.20;99.90
7814;DHT22;3952;48.364;16.022;2023-06-22T14:58:51;31.20;99.90
7814;DHT22;3952;48.364;16.022;2023-06-22T15:01:19;31.20;99.90
7814;DHT22;3952;48.364;16.022;2023-06-22T15:03:46;31.10;99.90
7814;DHT22;3952;48.364;16.022;2023-06-22T15:06:13;31.20;99.90
7814;DHT22;3952;48.364;16.022;2023-06-22T15:08:41;31.20;99.90
7814;DHT22;3952;48.364;16.022;2023-06-22T15:11:10;31.20;99.90
7814;DHT22;3952;48.364;16.022;2023-06-22T15:13:39;31.20;99.90
7814;DHT22;3952;48.364;16.022;2023-06-22T15:16:06;31.00;99.90
7814;DHT22;3952;48.364;16.022;2023-06-22T15:18:34;30.90;99.90
7814;DHT22;3952;48.364;16.022;2023-06-22T15:21:02;30.90;99.90
7814;DHT22;3952;48.364;16.022;2023-06-22T15:23:29;31.00;99.90
7814;DHT22;3952;48.364;16.022;2023-06-22T15:25:57;30.90;99.90
7814;DHT22;3952;48.364;16.022;2023-06-22T15:28:26;30.90;99.90
7814;DHT22;3952;48.364;16.022;2023-06-22T15:30:53;30.90;99.90
7814;DHT22;3952;48.364;16.022;2023-06-22T15:33:20;30.90;99.90
7814;DHT22;3952;48.364;16.022;2023-06-22T15:35:47;31.00;99.90
7814;DHT22;3952;48.364;16.022;2023-06-22T15:38:15;31.00;99.90
7814;DHT22;3952;48.364;16.022;2023-06-22T15:40:42;31.00;99.90
7814;DHT22;3952;48.364;16.022;2023-06-22T15:43:10;30.50;99.90
7814;DHT22;3952;48.364;16.022;2023-06-22T15:45:40;31.00;99.90
7814;DHT22;3952;48.364;16.022;2023-06-22T15:48:07;31.00;99.90
7814;DHT22;3952;48.364;16.022;2023-06-22T15:50:34;31.00;99.90